sensor_id;sensor_type;location;lat;lon;timestamp;pressure;altitude;pressure_sealevel;temperature;humidity
36254;BME280;22291;52.250;21.228;2023-03-26T00:01:21;98998.39;;;6.34;91.10
36254;BME280;22291;52.250;21.228;2023-03-26T00:03:50;98991.37;;;6.36;91.08
36254;BME280;22291;52.250;21.228;2023-03-26T00:06:28;98994.78;;;6.39;91.10
36254;BME280;22291;52.250;21.228;2023-03-26T00:08:57;98987.19;;;6.41;91.09
36254;BME280;22291;52.250;21.228;2023-03-26T00:11:26;98986.88;;;6.43;91.02
36254;BME280;22291;52.250;21.228;2023-03-26T00:13:53;98986.83;;;6.45;91.09
36254;BME280;22291;52.250;21.228;2023-03-26T00:16:29;98990.52;;;6.47;91.00
36254;BME280;22291;52.250;21.228;2023-03-26T00:18:58;98993.14;;;6.49;90.99
36254;BME280;22291;52.250;21.228;2023-03-26T00:21:28;98991.23;;;6.50;91.12
36254;BME280;22291;52.250;21.228;2023-03-26T00:23:59;98986.12;;;6.51;91.05
36254;BME280;22291;52.250;21.228;2023-03-26T00:26:31;98986.34;;;6.52;91.08
36254;BME280;22291;52.250;21.228;2023-03-26T00:28:58;98982.09;;;6.51;90.95
36254;BME280;22291;52.250;21.228;2023-03-26T00:31:26;98982.30;;;6.52;90.88
36254;BME280;22291;52.250;21.228;2023-03-26T00:33:54;98983.03;;;6.55;90.83
36254;BME280;22291;52.250;21.228;2023-03-26T00:36:23;98973.09;;;6.56;90.46
36254;BME280;22291;52.250;21.228;2023-03-26T00:38:52;98978.22;;;6.54;90.26
36254;BME280;22291;52.250;21.228;2023-03-26T00:41:21;98969.44;;;6.51;90.06
36254;BME280;22291;52.250;21.228;2023-03-26T00:43:56;98977.81;;;6.50;89.99
36254;BME280;22291;52.250;21.228;2023-03-26T00:46:26;98978.12;;;6.48;89.90
36254;BME280;22291;52.250;21.228;2023-03-26T00:48:55;98975.27;;;6.45;89.78
36254;BME280;22291;52.250;21.228;2023-03-26T00:51:24;98977.80;;;6.41;89.62
36254;BME280;22291;52.250;21.228;2023-03-26T00:53:52;98978.19;;;6.37;89.70
36254;BME280;22291;52.250;21.228;2023-03-26T00:56:19;98970.50;;;6.33;90.15
36254;BME280;22291;52.250;21.228;2023-03-26T00:58:46;98971.13;;;6.30;89.89
36254;BME280;22291;52.250;21.228;2023-03-26T01:01:18;98968.52;;;6.27;90.02
36254;BME280;22291;52.250;21.228;2023-03-26T01:03:48;98967.48;;;6.26;89.93
36254;BME280;22291;52.250;21.228;2023-03-26T01:06:29;98963.55;;;6.23;90.04
36254;BME280;22291;52.250;21.228;2023-03-26T01:09:19;98970.32;;;6.21;89.78
36254;BME280;22291;52.250;21.228;2023-03-26T01:11:44;98968.51;;;6.19;89.93
36254;BME280;22291;52.250;21.228;2023-03-26T01:14:20;98968.56;;;6.16;89.84
36254;BME280;22291;52.250;21.228;2023-03-26T01:16:51;98972.11;;;6.14;89.85
36254;BME280;22291;52.250;21.228;2023-03-26T01:19:25;98971.33;;;6.13;89.90
36254;BME280;22291;52.250;21.228;2023-03-26T01:22:19;98967.84;;;6.13;89.92
36254;BME280;22291;52.250;21.228;2023-03-26T01:24:48;98969.02;;;6.09;89.77
36254;BME280;22291;52.250;21.228;2023-03-26T01:27:37;98968.54;;;6.07;89.98
36254;BME280;22291;52.250;21.228;2023-03-26T01:33:01;98959.45;;;6.06;90.12
36254;BME280;22291;52.250;21.228;2023-03-26T01:35:53;98956.77;;;6.06;90.03
36254;BME280;22291;52.250;21.228;2023-03-26T01:46:36;98938.45;;;6.08;90.06
36254;BME280;22291;52.250;21.228;2023-03-26T01:49:04;98934.98;;;6.07;90.10
36254;BME280;22291;52.250;21.228;2023-03-26T01:51:35;98935.23;;;6.08;90.22
36254;BME280;22291;52.250;21.228;2023-03-26T01:54:04;98930.39;;;6.08;89.92
36254;BME280;22291;52.250;21.228;2023-03-26T01:57:05;98926.37;;;6.08;89.97
36254;BME280;22291;52.250;21.228;2023-03-26T02:05:28;98927.91;;;6.11;90.11
36254;BME280;22291;52.250;21.228;2023-03-26T02:11:11;98928.44;;;6.11;89.89
36254;BME280;22291;52.250;21.228;2023-03-26T02:13:40;98919.04;;;6.11;89.88
36254;BME280;22291;52.250;21.228;2023-03-26T02:16:11;98914.79;;;6.10;89.95
36254;BME280;22291;52.250;21.228;2023-03-26T02:18:42;98919.29;;;6.12;89.94
36254;BME280;22291;52.250;21.228;2023-03-26T02:21:12;98913.92;;;6.12;89.99
36254;BME280;22291;52.250;21.228;2023-03-26T02:23:43;98916.05;;;6.12;89.98
36254;BME280;22291;52.250;21.228;2023-03-26T02:26:15;98916.83;;;6.13;90.04
36254;BME280;22291;52.250;21.228;2023-03-26T02:28:44;98915.48;;;6.13;90.02
36254;BME280;22291;52.250;21.228;2023-03-26T02:31:11;98915.73;;;6.14;90.02
36254;BME280;22291;52.250;21.228;2023-03-26T02:33:40;98910.12;;;6.13;90.00
36254;BME280;22291;52.250;21.228;2023-03-26T02:36:10;98915.17;;;6.14;89.99
36254;BME280;22291;52.250;21.228;2023-03-26T02:38:39;98912.27;;;6.13;90.13
36254;BME280;22291;52.250;21.228;2023-03-26T02:41:07;98913.05;;;6.14;90.08
36254;BME280;22291;52.250;21.228;2023-03-26T02:43:34;98910.37;;;6.14;90.10
36254;BME280;22291;52.250;21.228;2023-03-26T02:46:01;98905.78;;;6.14;90.21
36254;BME280;22291;52.250;21.228;2023-03-26T02:48:27;98904.69;;;6.15;90.23
36254;BME280;22291;52.250;21.228;2023-03-26T02:50:53;98904.69;;;6.15;90.30
36254;BME280;22291;52.250;21.228;2023-03-26T02:53:21;98903.91;;;6.15;90.24
36254;BME280;22291;52.250;21.228;2023-03-26T02:55:49;98905.56;;;6.13;90.17
36254;BME280;22291;52.250;21.228;2023-03-26T02:58:17;98912.80;;;6.13;90.09
36254;BME280;22291;52.250;21.228;2023-03-26T03:00:46;98907.77;;;6.11;90.21
36254;BME280;22291;52.250;21.228;2023-03-26T03:03:14;98910.77;;;6.10;90.18
36254;BME280;22291;52.250;21.228;2023-03-26T03:05:42;98919.85;;;6.11;90.35
36254;BME280;22291;52.250;21.228;2023-03-26T03:08:09;98915.02;;;6.11;90.40
36254;BME280;22291;52.250;21.228;2023-03-26T03:10:36;98909.89;;;6.12;90.58
36254;BME280;22291;52.250;21.228;2023-03-26T03:13:04;98914.70;;;6.12;90.60
36254;BME280;22291;52.250;21.228;2023-03-26T03:15:33;98911.45;;;6.13;90.79
36254;BME280;22291;52.250;21.228;2023-03-26T03:18:01;98914.39;;;6.14;90.74
36254;BME280;22291;52.250;21.228;2023-03-26T03:20:28;98921.58;;;6.16;90.80
36254;BME280;22291;52.250;21.228;2023-03-26T03:22:55;98916.70;;;6.18;90.75
36254;BME280;22291;52.250;21.228;2023-03-26T03:25:21;98921.52;;;6.19;90.72
36254;BME280;22291;52.250;21.228;2023-03-26T03:27:48;98927.61;;;6.22;90.71
36254;BME280;22291;52.250;21.228;2023-03-26T03:30:15;98930.30;;;6.22;90.57
36254;BME280;22291;52.250;21.228;2023-03-26T03:32:42;98930.83;;;6.21;90.67
36254;BME280;22291;52.250;21.228;2023-03-26T03:35:09;98930.30;;;6.22;90.73
36254;BME280;22291;52.250;21.228;2023-03-26T03:37:36;98928.95;;;6.22;90.57
36254;BME280;22291;52.250;21.228;2023-03-26T03:40:04;98928.39;;;6.22;90.55
36254;BME280;22291;52.250;21.228;2023-03-26T03:42:33;98927.05;;;6.22;90.50
36254;BME280;22291;52.250;21.228;2023-03-26T03:45:03;98924.92;;;6.22;90.53
36254;BME280;22291;52.250;21.228;2023-03-26T03:47:31;98927.30;;;6.23;90.52
36254;BME280;22291;52.250;21.228;2023-03-26T03:49:57;98930.98;;;6.25;90.48
36254;BME280;22291;52.250;21.228;2023-03-26T03:52:26;98920.50;;;6.26;90.51
36254;BME280;22291;52.250;21.228;2023-03-26T03:54:54;98926.65;;;6.26;90.37
36254;BME280;22291;52.250;21.228;2023-03-26T03:57:23;98929.34;;;6.26;90.31
36254;BME280;22291;52.250;21.228;2023-03-26T03:59:51;98923.19;;;6.26;90.28
36254;BME280;22291;52.250;21.228;2023-03-26T04:02:19;98925.56;;;6.27;90.38
36254;BME280;22291;52.250;21.228;2023-03-26T04:04:47;98921.22;;;6.29;90.27
36254;BME280;22291;52.250;21.228;2023-03-26T04:07:15;98920.66;;;6.29;90.34
36254;BME280;22291;52.250;21.228;2023-03-26T04:09:41;98925.16;;;6.31;90.11
36254;BME280;22291;52.250;21.228;2023-03-26T04:12:07;98921.13;;;6.31;90.10
36254;BME280;22291;52.250;21.228;2023-03-26T04:14:33;98919.79;;;6.31;90.10
36254;BME280;22291;52.250;21.228;2023-03-26T04:17:01;98923.50;;;6.33;90.05
36254;BME280;22291;52.250;21.228;2023-03-26T04:19:30;98922.41;;;6.34;90.16
36254;BME280;22291;52.250;21.228;2023-03-26T04:21:56;98920.20;;;6.36;89.96
36254;BME280;22291;52.250;21.228;2023-03-26T04:24:30;98922.01;;;6.38;89.93
36254;BME280;22291;52.250;21.228;2023-03-26T04:27:00;98922.83;;;6.39;89.81
36254;BME280;22291;52.250;21.228;2023-03-26T04:29:28;98919.58;;;6.39;89.79
36254;BME280;22291;52.250;21.228;2023-03-26T04:31:58;98916.02;;;6.41;89.78
36254;BME280;22291;52.250;21.228;2023-03-26T04:34:26;98913.02;;;6.43;89.71
36254;BME280;22291;52.250;21.228;2023-03-26T04:36:54;98916.48;;;6.43;89.62
36254;BME280;22291;52.250;21.228;2023-03-26T04:39:21;98913.80;;;6.43;89.56
36254;BME280;22291;52.250;21.228;2023-03-26T04:41:47;98913.27;;;6.44;89.60
36254;BME280;22291;52.250;21.228;2023-03-26T04:44:13;98910.80;;;6.45;89.47
36254;BME280;22291;52.250;21.228;2023-03-26T04:46:42;98911.52;;;6.48;89.43
36254;BME280;22291;52.250;21.228;2023-03-26T04:49:10;98911.52;;;6.48;89.37
36254;BME280;22291;52.250;21.228;2023-03-26T04:51:38;98911.21;;;6.49;89.29
36254;BME280;22291;52.250;21.228;2023-03-26T04:54:07;98910.12;;;6.50;89.23
36254;BME280;22291;52.250;21.228;2023-03-26T04:56:58;98910.12;;;6.50;89.10
36254;BME280;22291;52.250;21.228;2023-03-26T04:59:31;98911.46;;;6.50;89.12
36254;BME280;22291;52.250;21.228;2023-03-26T05:02:04;98910.65;;;6.50;89.04
36254;BME280;22291;52.250;21.228;2023-03-26T05:04:33;98913.27;;;6.52;89.15
36254;BME280;22291;52.250;21.228;2023-03-26T05:07:02;98916.27;;;6.51;89.10
36254;BME280;22291;52.250;21.228;2023-03-26T05:09:28;98924.80;;;6.53;89.10
36254;BME280;22291;52.250;21.228;2023-03-26T05:11:55;98922.67;;;6.52;89.34
36254;BME280;22291;52.250;21.228;2023-03-26T05:14:24;98920.77;;;6.53;89.70
36254;BME280;22291;52.250;21.228;2023-03-26T05:16:50;98920.52;;;6.52;89.90
36254;BME280;22291;52.250;21.228;2023-03-26T05:19:18;98916.89;;;6.48;89.90
36254;BME280;22291;52.250;21.228;2023-03-26T05:21:46;98923.92;;;6.46;90.04
36254;BME280;22291;52.250;21.228;2023-03-26T05:24:14;98917.30;;;6.44;90.10
36254;BME280;22291;52.250;21.228;2023-03-26T05:26:40;98919.48;;;6.42;90.44
36254;BME280;22291;52.250;21.228;2023-03-26T05:29:07;98910.17;;;6.39;90.56
36254;BME280;22291;52.250;21.228;2023-03-26T05:31:34;98916.58;;;6.41;90.77
36254;BME280;22291;52.250;21.228;2023-03-26T05:34:01;98908.21;;;6.42;90.96
36254;BME280;22291;52.250;21.228;2023-03-26T05:36:29;98905.74;;;6.43;90.95
36254;BME280;22291;52.250;21.228;2023-03-26T05:38:56;98905.68;;;6.46;91.07
36254;BME280;22291;52.250;21.228;2023-03-26T05:41:22;98906.93;;;6.48;91.24
36254;BME280;22291;52.250;21.228;2023-03-26T05:43:48;98910.17;;;6.48;91.40
36254;BME280;22291;52.250;21.228;2023-03-26T05:46:16;98905.84;;;6.49;91.45
36254;BME280;22291;52.250;21.228;2023-03-26T05:48:45;98906.09;;;6.50;91.27
36254;BME280;22291;52.250;21.228;2023-03-26T05:51:13;98908.21;;;6.51;91.34
36254;BME280;22291;52.250;21.228;2023-03-26T05:53:41;98908.37;;;6.54;91.52
36254;BME280;22291;52.250;21.228;2023-03-26T05:56:09;98902.06;;;6.59;91.77
36254;BME280;22291;52.250;21.228;2023-03-26T05:58:37;98902.52;;;6.61;91.49
36254;BME280;22291;52.250;21.228;2023-03-26T06:01:06;98902.43;;;6.64;91.45
36254;BME280;22291;52.250;21.228;2023-03-26T06:03:37;98900.46;;;6.67;91.45
36254;BME280;22291;52.250;21.228;2023-03-26T06:06:10;98905.92;;;6.73;91.55
36254;BME280;22291;52.250;21.228;2023-03-26T06:08:46;98902.76;;;6.80;91.52
36254;BME280;22291;52.250;21.228;2023-03-26T06:11:17;98906.06;;;6.85;91.43
36254;BME280;22291;52.250;21.228;2023-03-26T06:13:46;98905.44;;;6.88;91.33
36254;BME280;22291;52.250;21.228;2023-03-26T06:16:14;98902.42;;;6.99;91.21
36254;BME280;22291;52.250;21.228;2023-03-26T06:18:42;98900.91;;;7.04;90.77
36254;BME280;22291;52.250;21.228;2023-03-26T06:21:09;98902.86;;;7.09;90.69
36254;BME280;22291;52.250;21.228;2023-03-26T06:23:35;98907.12;;;7.19;91.07
36254;BME280;22291;52.250;21.228;2023-03-26T06:26:02;98909.23;;;7.28;90.64
36254;BME280;22291;52.250;21.228;2023-03-26T06:28:28;98904.06;;;7.38;89.72
36254;BME280;22291;52.250;21.228;2023-03-26T06:30:58;98904.14;;;7.44;89.39
36254;BME280;22291;52.250;21.228;2023-03-26T06:33:27;98907.29;;;7.46;88.98
36254;BME280;22291;52.250;21.228;2023-03-26T06:35:54;98901.27;;;7.50;88.81
36254;BME280;22291;52.250;21.228;2023-03-26T06:38:21;98907.11;;;7.52;88.51
36254;BME280;22291;52.250;21.228;2023-03-26T06:40:47;98903.78;;;7.55;87.34
36254;BME280;22291;52.250;21.228;2023-03-26T06:43:14;98902.66;;;7.56;87.28
36254;BME280;22291;52.250;21.228;2023-03-26T06:45:41;98901.09;;;7.55;87.05
36254;BME280;22291;52.250;21.228;2023-03-26T06:48:07;98900.20;;;7.57;86.73
36254;BME280;22291;52.250;21.228;2023-03-26T06:50:33;98916.11;;;7.56;87.05
36254;BME280;22291;52.250;21.228;2023-03-26T06:53:00;98910.73;;;7.56;87.28
36254;BME280;22291;52.250;21.228;2023-03-26T06:55:27;98911.47;;;7.50;87.35
36254;BME280;22291;52.250;21.228;2023-03-26T06:57:54;98917.80;;;7.45;87.54
36254;BME280;22291;52.250;21.228;2023-03-26T07:00:23;98909.69;;;7.39;87.48
36254;BME280;22291;52.250;21.228;2023-03-26T07:02:51;98913.90;;;7.34;87.67
36254;BME280;22291;52.250;21.228;2023-03-26T07:05:18;98915.56;;;7.33;87.80
36254;BME280;22291;52.250;21.228;2023-03-26T07:07:46;98927.73;;;7.30;87.99
36254;BME280;22291;52.250;21.228;2023-03-26T07:10:13;98912.02;;;7.26;88.17
36254;BME280;22291;52.250;21.228;2023-03-26T07:12:40;98917.39;;;7.26;88.49
36254;BME280;22291;52.250;21.228;2023-03-26T07:15:09;98914.78;;;7.23;88.85
36254;BME280;22291;52.250;21.228;2023-03-26T07:17:36;98916.78;;;7.20;88.70
36254;BME280;22291;52.250;21.228;2023-03-26T07:20:05;98911.48;;;7.18;89.01
36254;BME280;22291;52.250;21.228;2023-03-26T07:22:34;98907.69;;;7.19;89.37
36254;BME280;22291;52.250;21.228;2023-03-26T07:25:02;98914.24;;;7.24;89.52
36254;BME280;22291;52.250;21.228;2023-03-26T07:30:30;98904.32;;;7.54;90.39
36254;BME280;22291;52.250;21.228;2023-03-26T07:33:24;98910.27;;;7.92;90.85
36254;BME280;22291;52.250;21.228;2023-03-26T07:47:55;98896.86;;;8.97;86.05
36254;BME280;22291;52.250;21.228;2023-03-26T07:50:25;98895.19;;;9.05;85.52
36254;BME280;22291;52.250;21.228;2023-03-26T07:52:54;98898.00;;;9.09;84.96
36254;BME280;22291;52.250;21.228;2023-03-26T07:55:22;98894.44;;;9.11;83.78
36254;BME280;22291;52.250;21.228;2023-03-26T08:00:57;98882.75;;;9.13;84.02
36254;BME280;22291;52.250;21.228;2023-03-26T08:06:29;98872.77;;;9.20;83.34
36254;BME280;22291;52.250;21.228;2023-03-26T08:11:53;98894.84;;;9.40;83.21
36254;BME280;22291;52.250;21.228;2023-03-26T08:14:54;98907.08;;;9.38;79.98
36254;BME280;22291;52.250;21.228;2023-03-26T08:17:29;98889.06;;;9.29;80.16
36254;BME280;22291;52.250;21.228;2023-03-26T08:31:39;98874.33;;;9.14;79.25
36254;BME280;22291;52.250;21.228;2023-03-26T08:34:12;98870.86;;;9.32;80.54
36254;BME280;22291;52.250;21.228;2023-03-26T08:36:40;98870.20;;;9.48;79.81
36254;BME280;22291;52.250;21.228;2023-03-26T08:39:06;98857.17;;;9.56;79.32
36254;BME280;22291;52.250;21.228;2023-03-26T08:56:28;98876.80;;;9.26;76.66
36254;BME280;22291;52.250;21.228;2023-03-26T09:10:47;98873.01;;;8.93;78.17
36254;BME280;22291;52.250;21.228;2023-03-26T09:13:30;98866.84;;;8.93;78.20
36254;BME280;22291;52.250;21.228;2023-03-26T09:16:03;98862.67;;;8.95;78.65
36254;BME280;22291;52.250;21.228;2023-03-26T09:27:34;98871.59;;;8.69;80.28
36254;BME280;22291;52.250;21.228;2023-03-26T09:36:29;98864.48;;;8.64;82.72
36254;BME280;22291;52.250;21.228;2023-03-26T09:39:01;98864.64;;;8.80;84.53
36254;BME280;22291;52.250;21.228;2023-03-26T09:41:57;98866.70;;;9.29;84.56
36254;BME280;22291;52.250;21.228;2023-03-26T09:56:03;98851.68;;;11.53;73.88
36254;BME280;22291;52.250;21.228;2023-03-26T10:01:41;98844.63;;;11.42;72.65
36254;BME280;22291;52.250;21.228;2023-03-26T10:07:30;98845.14;;;11.00;71.52
36254;BME280;22291;52.250;21.228;2023-03-26T10:10:19;98839.41;;;10.73;71.90
36254;BME280;22291;52.250;21.228;2023-03-26T10:55:54;98836.05;;;10.64;69.75
36254;BME280;22291;52.250;21.228;2023-03-26T10:58:27;98829.84;;;11.30;71.55
36254;BME280;22291;52.250;21.228;2023-03-26T11:01:03;98813.09;;;12.37;70.93
36254;BME280;22291;52.250;21.228;2023-03-26T11:03:59;98813.13;;;12.79;65.50
36254;BME280;22291;52.250;21.228;2023-03-26T11:06:48;98810.28;;;13.05;65.98
36254;BME280;22291;52.250;21.228;2023-03-26T11:15:00;98860.44;;;11.40;65.38
36254;BME280;22291;52.250;21.228;2023-03-26T11:20:16;98847.66;;;10.30;68.68
36254;BME280;22291;52.250;21.228;2023-03-26T11:26:08;98834.75;;;9.99;70.92
36254;BME280;22291;52.250;21.228;2023-03-26T11:29:05;98826.72;;;10.21;72.18
36254;BME280;22291;52.250;21.228;2023-03-26T11:34:26;98827.55;;;11.64;72.80
36254;BME280;22291;52.250;21.228;2023-03-26T11:36:54;98821.02;;;11.74;71.45
36254;BME280;22291;52.250;21.228;2023-03-26T11:39:27;98833.27;;;11.68;71.49
36254;BME280;22291;52.250;21.228;2023-03-26T11:42:10;98818.57;;;11.59;70.16
36254;BME280;22291;52.250;21.228;2023-03-26T11:44:38;98828.27;;;11.45;69.76
36254;BME280;22291;52.250;21.228;2023-03-26T11:47:12;98831.36;;;11.21;70.12
36254;BME280;22291;52.250;21.228;2023-03-26T11:49:41;98828.16;;;10.93;69.81
36254;BME280;22291;52.250;21.228;2023-03-26T11:52:10;98828.45;;;10.76;70.58
36254;BME280;22291;52.250;21.228;2023-03-26T11:54:37;98825.96;;;10.55;70.47
36254;BME280;22291;52.250;21.228;2023-03-26T11:57:12;98821.86;;;10.39;70.82
36254;BME280;22291;52.250;21.228;2023-03-26T12:00:03;98822.08;;;10.27;71.61
36254;BME280;22291;52.250;21.228;2023-03-26T12:02:39;98818.27;;;10.16;71.89
36254;BME280;22291;52.250;21.228;2023-03-26T12:05:18;98820.57;;;10.08;71.84
36254;BME280;22291;52.250;21.228;2023-03-26T12:15:49;98821.69;;;10.07;71.61
36254;BME280;22291;52.250;21.228;2023-03-26T12:18:26;98823.47;;;10.15;71.71
36254;BME280;22291;52.250;21.228;2023-03-26T12:21:09;98823.44;;;10.21;71.93
36254;BME280;22291;52.250;21.228;2023-03-26T12:26:34;98816.48;;;10.20;70.28
36254;BME280;22291;52.250;21.228;2023-03-26T12:29:08;98822.22;;;10.19;70.25
36254;BME280;22291;52.250;21.228;2023-03-26T12:31:55;98824.59;;;10.14;70.86
36254;BME280;22291;52.250;21.228;2023-03-26T12:34:35;98821.11;;;10.07;70.92
36254;BME280;22291;52.250;21.228;2023-03-26T12:37:05;98825.53;;;10.00;71.05
36254;BME280;22291;52.250;21.228;2023-03-26T12:39:38;98826.11;;;9.93;70.98
36254;BME280;22291;52.250;21.228;2023-03-26T12:42:26;98822.29;;;9.88;71.09
36254;BME280;22291;52.250;21.228;2023-03-26T12:44:55;98824.96;;;9.94;73.08
36254;BME280;22291;52.250;21.228;2023-03-26T12:47:29;98821.30;;;10.68;73.87
36254;BME280;22291;52.250;21.228;2023-03-26T12:49:57;98827.16;;;11.08;72.47
36254;BME280;22291;52.250;21.228;2023-03-26T12:55:46;98812.85;;;11.23;70.33
36254;BME280;22291;52.250;21.228;2023-03-26T13:01:17;98800.23;;;11.63;70.17
36254;BME280;22291;52.250;21.228;2023-03-26T13:06:57;98800.42;;;11.44;67.73
36254;BME280;22291;52.250;21.228;2023-03-26T13:12:45;98798.65;;;12.03;68.46
36254;BME280;22291;52.250;21.228;2023-03-26T13:15:37;98797.89;;;12.12;66.50
36254;BME280;22291;52.250;21.228;2023-03-26T13:21:20;98795.11;;;12.09;65.22
36254;BME280;22291;52.250;21.228;2023-03-26T13:23:59;98798.45;;;11.86;64.33
36254;BME280;22291;52.250;21.228;2023-03-26T13:35:32;98806.13;;;11.33;63.00
36254;BME280;22291;52.250;21.228;2023-03-26T13:38:14;98800.66;;;11.55;63.53
36254;BME280;22291;52.250;21.228;2023-03-26T13:46:39;98794.72;;;12.79;63.99
36254;BME280;22291;52.250;21.228;2023-03-26T13:52:50;98804.83;;;13.74;60.33
36254;BME280;22291;52.250;21.228;2023-03-26T13:55:37;98801.20;;;13.67;59.31
36254;BME280;22291;52.250;21.228;2023-03-26T13:58:24;98793.91;;;13.71;59.80
36254;BME280;22291;52.250;21.228;2023-03-26T14:01:13;98795.50;;;13.89;60.13
36254;BME280;22291;52.250;21.228;2023-03-26T14:09:18;98793.78;;;13.27;57.24
36254;BME280;22291;52.250;21.228;2023-03-26T14:15:02;98791.66;;;12.70;59.22
36254;BME280;22291;52.250;21.228;2023-03-26T14:17:52;98793.44;;;12.73;60.00
36254;BME280;22291;52.250;21.228;2023-03-26T14:20:27;98791.66;;;12.94;61.45
36254;BME280;22291;52.250;21.228;2023-03-26T14:26:40;98798.69;;;12.85;57.99
36254;BME280;22291;52.250;21.228;2023-03-26T14:41:43;98798.09;;;12.43;59.08
36254;BME280;22291;52.250;21.228;2023-03-26T14:47:18;98805.49;;;12.07;56.67
36254;BME280;22291;52.250;21.228;2023-03-26T14:52:54;98799.88;;;11.80;57.55
36254;BME280;22291;52.250;21.228;2023-03-26T15:26:19;98814.22;;;12.16;57.72
36254;BME280;22291;52.250;21.228;2023-03-26T15:35:04;98805.58;;;12.20;57.31
36254;BME280;22291;52.250;21.228;2023-03-26T15:46:53;98810.25;;;11.68;57.80
36254;BME280;22291;52.250;21.228;2023-03-26T15:49:43;98810.34;;;11.56;57.42
36254;BME280;22291;52.250;21.228;2023-03-26T15:52:35;98827.69;;;11.45;58.10
36254;BME280;22291;52.250;21.228;2023-03-26T16:01:28;98839.97;;;11.17;57.92
36254;BME280;22291;52.250;21.228;2023-03-26T16:04:12;98834.44;;;10.97;58.02
36254;BME280;22291;52.250;21.228;2023-03-26T16:06:58;98833.27;;;10.82;57.92
36254;BME280;22291;52.250;21.228;2023-03-26T16:12:45;98845.90;;;10.56;58.91
36254;BME280;22291;52.250;21.228;2023-03-26T16:20:52;98855.42;;;10.19;59.96
36254;BME280;22291;52.250;21.228;2023-03-26T16:23:29;98842.52;;;10.06;60.20
36254;BME280;22291;52.250;21.228;2023-03-26T16:31:30;98846.14;;;9.80;60.87
36254;BME280;22291;52.250;21.228;2023-03-26T16:36:44;98851.56;;;9.67;61.67
36254;BME280;22291;52.250;21.228;2023-03-26T16:39:23;98853.47;;;9.61;61.96
36254;BME280;22291;52.250;21.228;2023-03-26T16:45:07;98852.23;;;9.52;62.29
36254;BME280;22291;52.250;21.228;2023-03-26T16:51:21;98853.22;;;9.41;62.56
36254;BME280;22291;52.250;21.228;2023-03-26T16:56:32;98855.79;;;9.25;62.84
36254;BME280;22291;52.250;21.228;2023-03-26T17:05:06;98866.98;;;9.09;63.36
36254;BME280;22291;52.250;21.228;2023-03-26T17:07:43;98871.57;;;9.02;63.47
36254;BME280;22291;52.250;21.228;2023-03-26T17:13:10;98879.87;;;8.91;63.68
36254;BME280;22291;52.250;21.228;2023-03-26T17:15:47;98882.53;;;8.85;64.01
36254;BME280;22291;52.250;21.228;2023-03-26T17:18:31;98881.96;;;8.79;64.15
36254;BME280;22291;52.250;21.228;2023-03-26T17:21:23;98875.19;;;8.73;64.21
36254;BME280;22291;52.250;21.228;2023-03-26T17:24:17;98879.76;;;8.66;64.51
36254;BME280;22291;52.250;21.228;2023-03-26T17:26:49;98878.16;;;8.59;64.61
36254;BME280;22291;52.250;21.228;2023-03-26T17:29:40;98882.86;;;8.56;64.64
36254;BME280;22291;52.250;21.228;2023-03-26T17:32:11;98880.69;;;8.49;65.00
36254;BME280;22291;52.250;21.228;2023-03-26T17:34:58;98886.52;;;8.45;65.12
36254;BME280;22291;52.250;21.228;2023-03-26T17:42:36;98887.86;;;8.30;65.48
36254;BME280;22291;52.250;21.228;2023-03-26T17:47:53;98878.73;;;8.22;65.71
36254;BME280;22291;52.250;21.228;2023-03-26T17:50:30;98880.16;;;8.20;65.90
36254;BME280;22291;52.250;21.228;2023-03-26T17:53:16;98876.12;;;8.20;66.36
36254;BME280;22291;52.250;21.228;2023-03-26T17:55:43;98888.94;;;8.23;66.37
36254;BME280;22291;52.250;21.228;2023-03-26T18:01:12;98883.98;;;8.19;66.46
36254;BME280;22291;52.250;21.228;2023-03-26T18:03:52;98886.06;;;8.13;66.51
36254;BME280;22291;52.250;21.228;2023-03-26T18:18:19;98886.81;;;7.93;66.64
36254;BME280;22291;52.250;21.228;2023-03-26T18:20:50;98888.67;;;7.86;67.10
36254;BME280;22291;52.250;21.228;2023-03-26T18:23:25;98888.72;;;7.77;67.27
36254;BME280;22291;52.250;21.228;2023-03-26T18:26:21;98883.95;;;7.68;67.15
36254;BME280;22291;52.250;21.228;2023-03-26T18:28:39;98886.65;;;7.59;67.24
36254;BME280;22291;52.250;21.228;2023-03-26T18:31:29;98890.19;;;7.51;67.17
36254;BME280;22291;52.250;21.228;2023-03-26T18:33:47;98891.00;;;7.43;67.54
36254;BME280;22291;52.250;21.228;2023-03-26T18:36:16;98893.48;;;7.33;67.26
36254;BME280;22291;52.250;21.228;2023-03-26T18:38:44;98896.52;;;7.23;67.59
36254;BME280;22291;52.250;21.228;2023-03-26T18:41:24;98894.63;;;7.15;67.90
36254;BME280;22291;52.250;21.228;2023-03-26T18:44:02;98891.50;;;7.04;68.33
36254;BME280;22291;52.250;21.228;2023-03-26T18:46:28;98894.98;;;6.96;68.68
36254;BME280;22291;52.250;21.228;2023-03-26T18:48:55;98892.56;;;6.88;68.48
36254;BME280;22291;52.250;21.228;2023-03-26T18:51:25;98895.23;;;6.79;68.71
36254;BME280;22291;52.250;21.228;2023-03-26T18:53:57;98892.02;;;6.71;69.13
36254;BME280;22291;52.250;21.228;2023-03-26T18:56:37;98889.16;;;6.59;69.47
36254;BME280;22291;52.250;21.228;2023-03-26T18:59:29;98891.94;;;6.47;69.69
36254;BME280;22291;52.250;21.228;2023-03-26T19:02:05;98883.94;;;6.36;69.82
36254;BME280;22291;52.250;21.228;2023-03-26T19:04:38;98882.84;;;6.28;70.52
36254;BME280;22291;52.250;21.228;2023-03-26T19:07:10;98877.12;;;6.21;70.93
36254;BME280;22291;52.250;21.228;2023-03-26T19:09:39;98878.40;;;6.15;71.10
36254;BME280;22291;52.250;21.228;2023-03-26T19:12:15;98868.59;;;6.10;71.49
36254;BME280;22291;52.250;21.228;2023-03-26T19:15:02;98863.63;;;6.06;71.99
36254;BME280;22291;52.250;21.228;2023-03-26T19:17:27;98857.28;;;6.02;71.68
36254;BME280;22291;52.250;21.228;2023-03-26T19:19:56;98861.52;;;5.94;71.59
36254;BME280;22291;52.250;21.228;2023-03-26T19:22:23;98853.11;;;5.87;71.79
36254;BME280;22291;52.250;21.228;2023-03-26T19:24:54;98852.00;;;5.79;72.03